Time;durP1;ratioP1;P1;durP2;ratioP2;P2;SDS_P1;SDS_P2;PMS_P1;PMS_P2;Temp;Humidity;BMP_temperature;BMP_pressure;BME280_temperature;BME280_humidity;BME280_pressure;Samples;Min_cycle;Max_cycle;Signal;HPM_P1;HPM_P2
2022/08/15 00:00:44;;;;;;;15.10;9.70;;;;;;;;;;4792871;29;20057;-84
2022/08/15 00:03:27;;;;;;;13.70;9.52;;;;;;;;;;4803891;29;20061;-84
2022/08/15 00:05:53;;;;;;;10.33;9.33;;;;;;;;;;4804461;29;20154;-84
2022/08/15 00:08:20;;;;;;;11.05;9.50;;;;;;;;;;4782862;29;20480;-84
2022/08/15 00:10:46;;;;;;;12.27;9.52;;;;;;;;;;4801034;29;20063;-85
2022/08/15 00:13:14;;;;;;;16.33;10.68;;;;;;;;;;4804828;29;20046;-85
2022/08/15 00:15:40;;;;;;;11.32;10.23;;;;;;;;;;4809578;29;20116;-83
2022/08/15 00:18:06;;;;;;;10.73;9.73;;;;;;;;;;4795510;29;20039;-83
2022/08/15 00:20:37;;;;;;;11.10;9.88;;;;;;;;;;4788125;29;20059;-81
2022/08/15 00:23:09;;;;;;;11.00;9.98;;;;;;;;;;4798103;29;20058;-84
2022/08/15 00:25:37;;;;;;;11.13;10.02;;;;;;;;;;4802247;29;20031;-83
2022/08/15 00:28:05;;;;;;;13.05;10.63;;;;;;;;;;4803488;29;20141;-84
2022/08/15 00:30:31;;;;;;;12.18;10.95;;;;;;;;;;4802713;29;20047;-84
2022/08/15 00:33:07;;;;;;;11.23;10.10;;;;;;;;;;4805439;29;20043;-83
2022/08/15 00:35:40;;;;;;;13.00;10.40;;;;;;;;;;4800745;29;20043;-80
2022/08/15 00:38:25;;;;;;;13.05;9.90;;;;;;;;;;4813897;29;20061;-86
2022/08/15 00:43:57;;;;;;;11.82;10.25;;;;;;;;;;4801422;29;20076;-83
2022/08/15 00:46:25;;;;;;;12.45;10.38;;;;;;;;;;4794004;29;20412;-83
2022/08/15 00:48:54;;;;;;;11.93;9.80;;;;;;;;;;4815244;29;20103;-85
2022/08/15 00:51:30;;;;;;;12.25;10.30;;;;;;;;;;4814498;29;20087;-81
2022/08/15 00:54:17;;;;;;;12.75;10.10;;;;;;;;;;4789232;29;20063;-80
2022/08/15 00:57:06;;;;;;;12.65;10.52;;;;;;;;;;4803046;29;20470;-86
2022/08/15 00:59:35;;;;;;;19.17;10.13;;;;;;;;;;4796364;29;20520;-85
2022/08/15 01:02:04;;;;;;;11.10;9.93;;;;;;;;;;4793937;29;20635;-84
2022/08/15 01:04:30;;;;;;;12.55;9.93;;;;;;;;;;4806679;29;20605;-85
2022/08/15 01:06:59;;;;;;;13.45;9.57;;;;;;;;;;4799571;29;20050;-85
2022/08/15 01:09:25;;;;;;;11.32;9.90;;;;;;;;;;4796909;29;20094;-84
2022/08/15 01:12:04;;;;;;;12.75;10.10;;;;;;;;;;4806676;29;20051;-83
2022/08/15 01:14:31;;;;;;;13.48;9.70;;;;;;;;;;4812243;29;20082;-85
2022/08/15 01:16:57;;;;;;;14.85;9.95;;;;;;;;;;4808012;29;20051;-82
2022/08/15 01:19:31;;;;;;;10.90;9.35;;;;;;;;;;4804786;29;20046;-85
2022/08/15 01:22:35;;;;;;;10.65;9.40;;;;;;;;;;4804496;29;20142;-81
2022/08/15 01:25:05;;;;;;;12.57;9.50;;;;;;;;;;4797998;29;20047;-83
2022/08/15 01:27:37;;;;;;;11.98;9.60;;;;;;;;;;4796423;29;20364;-83
2022/08/15 01:30:11;;;;;;;14.60;10.15;;;;;;;;;;4809458;29;21316;-80
2022/08/15 01:32:43;;;;;;;18.83;10.18;;;;;;;;;;4819298;29;20064;-81
2022/08/15 01:35:10;;;;;;;13.07;10.02;;;;;;;;;;4812257;29;20094;-83
2022/08/15 01:37:59;;;;;;;11.90;9.70;;;;;;;;;;4809370;29;20482;-85
2022/08/15 01:44:04;;;;;;;10.90;9.93;;;;;;;;;;4806323;29;20043;-86
2022/08/15 01:46:33;;;;;;;9.90;8.97;;;;;;;;;;4821997;29;20039;-83
2022/08/15 01:51:52;;;;;;;11.73;10.50;;;;;;;;;;4799183;29;20059;-81
2022/08/15 01:54:20;;;;;;;14.63;9.45;;;;;;;;;;4785486;29;20047;-83
2022/08/15 01:56:49;;;;;;;13.18;8.75;;;;;;;;;;4795333;29;20078;-83
2022/08/15 01:59:34;;;;;;;10.95;9.32;;;;;;;;;;4780992;29;20469;-84
2022/08/15 02:02:02;;;;;;;11.65;9.57;;;;;;;;;;4772787;29;20055;-83
2022/08/15 02:04:36;;;;;;;11.57;9.05;;;;;;;;;;4778926;29;20138;-81
2022/08/15 02:07:08;;;;;;;12.27;9.45;;;;;;;;;;4770212;30;20116;-83
2022/08/15 02:09:44;;;;;;;10.63;9.10;;;;;;;;;;4780985;29;20517;-81
2022/08/15 02:12:11;;;;;;;18.67;10.05;;;;;;;;;;4781352;29;20386;-85
2022/08/15 02:14:41;;;;;;;13.95;9.85;;;;;;;;;;4776976;29;20119;-82
2022/08/15 02:17:09;;;;;;;10.90;9.82;;;;;;;;;;4782499;29;20134;-82
2022/08/15 02:19:35;;;;;;;11.23;10.02;;;;;;;;;;4784452;29;20130;-84
2022/08/15 02:22:01;;;;;;;16.88;10.77;;;;;;;;;;4785719;29;20058;-84
2022/08/15 02:24:27;;;;;;;15.90;10.70;;;;;;;;;;4768906;29;20519;-80
2022/08/15 02:27:02;;;;;;;12.32;11.07;;;;;;;;;;4768129;29;20336;-82
2022/08/15 02:29:29;;;;;;;14.07;10.25;;;;;;;;;;4771031;29;20071;-82
2022/08/15 02:32:01;;;;;;;14.35;11.45;;;;;;;;;;4785334;29;20035;-80
2022/08/15 02:34:27;;;;;;;11.70;10.43;;;;;;;;;;4784677;29;20059;-80
2022/08/15 02:37:08;;;;;;;11.90;10.77;;;;;;;;;;4768972;29;20047;-81
2022/08/15 02:39:39;;;;;;;12.75;10.32;;;;;;;;;;4773669;29;20067;-80
2022/08/15 02:42:06;;;;;;;12.60;11.35;;;;;;;;;;4785023;29;20063;-83
2022/08/15 02:44:41;;;;;;;12.23;11.23;;;;;;;;;;4767397;29;20104;-80
2022/08/15 02:47:08;;;;;;;18.33;13.65;;;;;;;;;;4768936;30;20132;-79
2022/08/15 02:49:34;;;;;;;16.13;11.55;;;;;;;;;;4784401;29;20047;-81
2022/08/15 02:52:00;;;;;;;14.10;11.30;;;;;;;;;;4785671;29;20039;-82
2022/08/15 02:54:27;;;;;;;14.55;11.80;;;;;;;;;;4785573;29;20058;-81
2022/08/15 02:57:04;;;;;;;13.18;10.77;;;;;;;;;;4786189;29;20082;-82
2022/08/15 02:59:46;;;;;;;15.27;11.93;;;;;;;;;;4755072;29;20085;-81
2022/08/15 03:02:15;;;;;;;12.68;11.10;;;;;;;;;;4777719;29;20111;-84
2022/08/15 03:04:41;;;;;;;14.38;12.02;;;;;;;;;;4790953;29;20107;-85
2022/08/15 03:07:07;;;;;;;14.48;12.48;;;;;;;;;;4777856;29;20059;-82
2022/08/15 03:09:33;;;;;;;12.90;11.70;;;;;;;;;;4785346;29;20129;-80
2022/08/15 03:12:00;;;;;;;13.88;12.40;;;;;;;;;;4783266;29;20050;-82
2022/08/15 03:14:36;;;;;;;17.30;13.85;;;;;;;;;;4780866;29;20055;-83
2022/08/15 03:17:03;;;;;;;14.13;12.70;;;;;;;;;;4782480;29;20062;-82
2022/08/15 03:19:38;;;;;;;14.05;11.90;;;;;;;;;;4782735;29;20046;-84
2022/08/15 03:22:04;;;;;;;13.85;12.48;;;;;;;;;;4772125;30;20047;-81
2022/08/15 03:24:32;;;;;;;14.90;13.15;;;;;;;;;;4768995;29;20057;-82
2022/08/15 03:27:00;;;;;;;15.15;13.65;;;;;;;;;;4772651;30;20058;-84
2022/08/15 03:29:27;;;;;;;15.55;14.05;;;;;;;;;;4785607;29;20047;-84
2022/08/15 03:31:53;;;;;;;15.35;13.80;;;;;;;;;;4783522;29;20130;-79
2022/08/15 03:34:37;;;;;;;16.60;14.88;;;;;;;;;;4789935;29;20845;-84
2022/08/15 03:37:06;;;;;;;18.08;14.52;;;;;;;;;;4775910;29;20039;-80
2022/08/15 03:39:38;;;;;;;15.90;14.43;;;;;;;;;;4770001;29;20039;-80
2022/08/15 03:42:08;;;;;;;16.23;14.55;;;;;;;;;;4783843;29;20087;-84
2022/08/15 03:44:35;;;;;;;18.40;14.70;;;;;;;;;;4757559;30;20051;-84
2022/08/15 03:47:01;;;;;;;17.10;15.27;;;;;;;;;;4780325;29;20050;-80
2022/08/15 03:49:36;;;;;;;15.45;13.93;;;;;;;;;;4769228;30;20462;-80
2022/08/15 03:52:06;;;;;;;16.85;13.93;;;;;;;;;;4779379;29;20131;-83
2022/08/15 03:54:32;;;;;;;17.67;14.82;;;;;;;;;;4776698;29;20119;-81
2022/08/15 03:57:08;;;;;;;15.57;14.02;;;;;;;;;;4785179;29;20054;-80
2022/08/15 03:59:35;;;;;;;15.02;12.77;;;;;;;;;;4775339;29;20412;-83
2022/08/15 04:02:02;;;;;;;15.35;13.75;;;;;;;;;;4757888;29;20063;-82
2022/08/15 04:04:31;;;;;;;16.02;14.35;;;;;;;;;;4764427;29;20081;-86
2022/08/15 04:07:03;;;;;;;15.25;13.05;;;;;;;;;;4784298;29;20177;-84
2022/08/15 04:09:47;;;;;;;15.50;13.88;;;;;;;;;;4775109;29;20055;-86
2022/08/15 04:12:12;;;;;;;;;;;22.70;99.90;;;;;;4773138;29;20052;-84
2022/08/15 04:14:39;;;;;;;14.77;13.32;;;;;;;;;;4764241;29;20268;-81
2022/08/15 04:17:05;;;;;;;16.38;13.88;;;;;;;;;;4792114;29;20111;-82
2022/08/15 04:19:31;;;;;;;15.38;13.98;;;;;;;;;;4793094;29;20547;-87
2022/08/15 04:22:03;;;;;;;14.52;13.23;;;;;;;;;;4768095;29;20062;-84
2022/08/15 04:24:29;;;;;;;15.45;13.82;;;;;;;;;;4764932;30;20106;-83
2022/08/15 04:27:04;;;;;;;15.77;14.25;;;;;;;;;;4786592;29;20074;-86
2022/08/15 04:29:30;;;;;;;19.83;14.02;;;;;;;;;;4786143;29;20110;-86
2022/08/15 04:31:56;;;;;;;15.45;13.93;;;;;;;;;;4778435;29;20137;-81
2022/08/15 04:34:22;;;;;;;15.18;13.60;;;;;;;;;;4784650;29;20083;-82
2022/08/15 04:36:49;;;;;;;17.20;13.23;;;;;;;;;;4780480;29;20183;-85
2022/08/15 04:39:15;;;;;;;16.65;13.50;;;;;;;;;;4771901;29;20086;-84
2022/08/15 04:41:42;;;;;;;15.32;13.70;;;;;;;;;;4773176;29;20047;-85
2022/08/15 04:44:17;;;;;;;15.60;13.65;;;;;;;;;;4772360;29;20052;-82
2022/08/15 04:46:45;;;;;;;16.48;13.48;;;;;;;;;;4771969;29;20108;-82
2022/08/15 04:49:12;;;;;;;14.88;13.27;;;;;;;;;;4773414;29;20070;-81
2022/08/15 04:51:38;;;;;;;17.70;14.15;;;;;;;;;;4771950;29;20047;-81
2022/08/15 04:54:07;;;;;;;15.88;14.30;;;;;;;;;;4764158;29;20043;-83
2022/08/15 04:56:33;;;;;;;21.00;13.30;;;;;;;;;;4777031;29;20056;-84
2022/08/15 04:58:59;;;;;;;15.57;13.93;;;;;;;;;;4755748;29;20048;-83
2022/08/15 05:01:26;;;;;;;15.93;13.73;;;;;;;;;;4746612;29;20057;-82
2022/08/15 05:03:53;;;;;;;16.00;14.50;;;;;;;;;;4779196;29;20052;-84
2022/08/15 05:06:28;;;;;;;16.25;14.63;;;;;;;;;;4774386;29;20079;-82
2022/08/15 05:09:06;;;;;;;17.67;13.95;;;;;;;;;;4775699;29;20501;-84
2022/08/15 05:11:32;;;;;;;15.95;14.35;;;;;;;;;;4767794;30;20066;-82
2022/08/15 05:14:11;;;;;;;16.15;14.55;;;;;;;;;;4768849;29;20138;-82
2022/08/15 05:16:52;;;;;;;15.80;14.30;;;;;;;;;;4781650;29;20051;-87
2022/08/15 05:19:32;;;;;;;16.92;14.63;;;;;;;;;;4776644;29;20047;-84
2022/08/15 05:21:59;;;;;;;15.88;14.13;;;;;;;;;;4785692;29;20062;-86
2022/08/15 05:24:40;;;;;;;15.30;13.70;;;;;;;;;;4762320;30;20624;-87
2022/08/15 05:27:10;;;;;;;16.42;14.93;;;;;;;;;;4760951;30;20047;-87
2022/08/15 05:29:36;;;;;;;16.02;14.43;;;;;;;;;;4787507;29;20580;-85
2022/08/15 05:32:06;;;;;;;20.35;15.13;;;;;;;;;;4774041;30;20074;-85
2022/08/15 05:34:32;;;;;;;16.40;14.70;;;;;;;;;;4789043;29;20115;-85
2022/08/15 05:37:00;;;;;;;16.30;14.07;;;;;;;;;;4775600;30;20051;-82
2022/08/15 05:39:43;;;;;;;18.60;15.00;;;;;;;;;;4773761;29;20051;-86
2022/08/15 05:42:18;;;;;;;17.85;14.38;;;;;;;;;;4792948;29;20051;-84
2022/08/15 05:45:00;;;;;;;16.38;14.43;;;;;;;;;;4764223;30;20119;-85
2022/08/15 05:50:34;;;;;;;18.45;16.35;;;;;;;;;;4774575;29;20058;-85
2022/08/15 05:56:25;;;;;;;17.60;16.00;;;;;;;;;;5012356;24;20062;-84
2022/08/15 05:59:12;;;;;;;17.60;15.63;;;;;;;;;;4795183;29;20062;-85
2022/08/15 06:05:36;;;;;;;17.30;15.65;;;;;;;;;;4810898;29;20585;-87
2022/08/15 06:08:20;;;;;;;17.83;16.13;;;;;;;;;;4823692;29;20122;-86
2022/08/15 06:11:10;;;;;;;18.75;15.80;;;;;;;;;;4832037;29;20133;-86
2022/08/15 06:21:17;;;;;;;18.90;14.43;;;;;;;;;;4771453;30;20080;-87
2022/08/15 06:24:07;;;;;;;16.10;14.00;;;;;;;;;;4740989;30;20102;-86
2022/08/15 06:40:28;;;;;;;14.20;12.82;;;;;;;;;;4821187;23;20199;-86
2022/08/15 06:43:34;;;;;;;17.10;13.50;;;;;;;;;;4809894;29;20062;-84
2022/08/15 06:53:54;;;;;;;15.40;13.77;;;23.80;99.90;;;;;;4833392;29;20125;-83
2022/08/15 07:03:24;;;;;;;16.70;12.45;;;;;;;;;;4831676;29;20347;-86
2022/08/15 07:06:10;;;;;;;16.17;12.90;;;;;;;;;;4828572;29;20075;-87
2022/08/15 07:09:07;;;;;;;15.00;13.48;;;;;;;;;;4822652;29;20054;-87
2022/08/15 07:11:49;;;;;;;16.05;13.25;;;;;;;;;;4826230;29;20053;-87
2022/08/15 07:14:21;;;;;;;15.27;12.15;;;;;;;;;;4799206;29;20057;-83
2022/08/15 07:29:09;;;;;;;12.18;10.88;;;;;;;;;;4848839;29;20052;-85
2022/08/15 07:31:36;;;;;;;;;;;;;;;;;;4828486;29;20054;-83
2022/08/15 07:37:45;;;;;;;14.23;10.88;;;;;;;;;;4848262;29;20125;-84
2022/08/15 07:43:39;;;;;;;11.43;10.10;;;;;;;;;;4822914;29;20092;-84
2022/08/15 07:46:27;;;;;;;12.93;10.48;;;;;;;;;;4820001;29;20051;-85
2022/08/15 07:49:29;;;;;;;20.60;11.18;;;;;;;;;;4804677;29;20085;-83
2022/08/15 07:52:30;;;;;;;15.90;10.95;;;;;;;;;;4808277;24;20446;-82
2022/08/15 07:55:25;;;;;;;13.93;11.20;;;;;;;;;;4823723;29;20046;-83
2022/08/15 07:58:05;;;;;;;16.55;11.18;;;;;;;;;;4809033;29;20082;-84
2022/08/15 08:00:34;;;;;;;13.35;12.02;;;;;;;;;;4827310;29;20456;-82
2022/08/15 08:07:04;;;;;;;13.60;11.27;;;;;;;;;;4824928;29;20460;-83
2022/08/15 08:09:48;;;;;;;12.63;10.85;;;;;;;;;;4804926;29;20077;-85
2022/08/15 08:12:30;;;;;;;11.82;10.75;;;;;;;;;;4825955;29;20048;-83
2022/08/15 08:15:04;;;;;;;11.93;10.18;;;;;;;;;;4829080;29;20557;-82
2022/08/15 08:17:30;;;;;;;12.68;10.73;;;;;;;;;;4825539;29;20058;-84
2022/08/15 08:19:57;;;;;;;12.10;10.07;;;;;;;;;;4810336;29;20042;-83
2022/08/15 08:22:26;;;;;;;12.10;9.82;;;;;;;;;;4795616;29;20066;-84
2022/08/15 08:25:04;;;;;;;11.35;10.25;;;;;;;;;;4824374;29;20054;-84
2022/08/15 08:27:57;;;;;;;14.18;10.00;;;;;;;;;;4829028;29;20037;-84
2022/08/15 08:30:30;;;;;;;14.15;10.60;;;;;;;;;;4794966;29;20065;-83
2022/08/15 08:33:02;;;;;;;15.30;9.85;;;;;;;;;;4810945;29;20496;-85
2022/08/15 08:35:37;;;;;;;15.90;10.52;;;;;;;;;;4818931;29;20038;-81
2022/08/15 08:38:18;;;;;;;10.25;8.68;;;;;;;;;;4811454;29;20515;-83
2022/08/15 08:43:39;;;;;;;9.05;7.28;;;;;;;;;;4824182;29;20070;-84
2022/08/15 08:46:21;;;;;;;8.63;6.68;;;;;;;;;;4826357;29;20062;-83
2022/08/15 08:48:51;;;;;;;9.15;6.97;;;;;;;;;;4819827;29;20046;-84
2022/08/15 08:51:21;;;;;;;9.63;7.03;;;;;;;;;;4807103;29;20050;-83
2022/08/15 08:54:05;;;;;;;8.00;7.07;;;;;;;;;;4825130;29;20084;-83
2022/08/15 08:56:34;;;;;;;10.40;7.35;;;;;;;;;;4824008;29;20150;-85
2022/08/15 08:59:33;;;;;;;;;;;;;;;;;;;;;
2022/08/15 09:02:37;;;;;;;8.52;6.72;;;;;;;;;;4807296;29;20104;-83
2022/08/15 09:05:07;;;;;;;7.30;6.60;;;;;;;;;;4825933;29;20043;-83
2022/08/15 09:10:11;;;;;;;10.20;6.47;;;;;;;;;;4811908;24;20066;-83
2022/08/15 09:15:41;;;;;;;5.82;4.60;;;;;;;;;;4789959;29;20124;-87
2022/08/15 09:18:11;;;;;;;6.55;5.00;;;;;;;;;;4787896;29;20051;-84
2022/08/15 09:21:00;;;;;;;5.32;4.82;;;;;;;;;;4768282;29;20047;-85
2022/08/15 09:23:33;;;;;;;5.13;4.60;;;;;;;;;;4774852;29;20059;-85
2022/08/15 09:26:18;;;;;;;4.15;3.78;;;;;;;;;;4776034;29;20055;-86
2022/08/15 09:28:46;;;;;;;5.65;4.57;;;;;;;;;;4787582;29;20060;-85
2022/08/15 09:31:14;;;;;;;6.90;3.95;;;;;;;;;;4772122;29;20126;-83
2022/08/15 09:33:49;;;;;;;7.10;4.30;;;;;;;;;;4789801;29;20187;-85
2022/08/15 09:36:22;;;;;;;9.13;4.45;;;;;;;;;;4761588;29;20055;-83
2022/08/15 09:38:54;;;;;;;6.80;3.67;;;;;;;;;;4759622;29;20123;-83
2022/08/15 09:41:37;;;;;;;4.65;3.97;;;;;;;;;;4776499;29;20062;-83
2022/08/15 09:44:25;;;;;;;3.45;3.15;;;;;;;;;;4771093;30;20142;-87
2022/08/15 09:47:01;;;;;;;3.97;3.67;;;;;;;;;;4783730;29;20138;-83
2022/08/15 09:49:43;;;;;;;5.90;3.67;;;;;;;;;;4780365;29;20054;-83
2022/08/15 09:52:31;;;;;;;5.22;4.53;;;;;;;;;;4774595;29;20047;-82
2022/08/15 09:55:15;;;;;;;8.10;4.35;;;;;;;;;;4765748;29;20120;-85
2022/08/15 10:00:45;;;;;;;6.45;4.25;;;;;;;;;;4832771;24;20058;-83
2022/08/15 10:03:23;;;;;;;3.78;3.42;;;;;;;;;;4827783;29;20058;-85
2022/08/15 10:06:05;;;;;;;4.32;3.78;;;;;;;;;;4796474;29;20212;-84
2022/08/15 10:08:50;;;;;;;5.53;3.28;;;;;;;;;;4810722;29;20097;-85
2022/08/15 10:11:17;;;;;;;3.45;3.15;;;;;;;;;;4825781;29;20050;-85
2022/08/15 10:17:21;;;;;;;3.75;3.45;;;;;;;;;;4769987;29;20619;-87
2022/08/15 10:23:01;;;;;;;3.60;3.10;;;;;;;;;;4993341;24;20077;-88
2022/08/15 10:25:28;;;;;;;3.72;3.20;;;;;;;;;;4813839;29;20046;-88
2022/08/15 10:28:00;;;;;;;3.00;2.80;;;;;;;;;;4801495;29;20051;-89
2022/08/15 10:30:30;;;;;;;3.17;2.90;;;;;;;;;;4827896;29;20046;-88
2022/08/15 10:32:57;;;;;;;3.25;2.90;;;;;;;;;;4798946;29;20380;-87
2022/08/15 10:35:29;;;;;;;4.50;3.45;;;;;;;;;;4810067;29;20133;-85
2022/08/15 10:37:59;;;;;;;4.10;3.80;;;;;;;;;;4805374;29;20110;-87
2022/08/15 10:40:47;;;;;;;4.22;3.83;;;;;;;;;;4808616;29;20320;-85
2022/08/15 10:43:17;;;;;;;5.50;4.13;;;;;;;;;;4799262;29;20243;-87
2022/08/15 10:46:08;;;;;;;5.75;4.53;;;;;;;;;;4831707;29;20080;-88
2022/08/15 10:48:49;;;;;;;6.95;4.95;;;;;;;;;;4823976;29;20469;-88
2022/08/15 10:51:34;;;;;;;7.57;5.75;;;;;;;;;;4827144;29;20035;-88
2022/08/15 10:54:22;;;;;;;5.85;5.28;;;;;;;;;;4804638;29;20392;-85
2022/08/15 10:56:56;;;;;;;5.97;5.13;;;;;;;;;;4801502;29;20053;-88
2022/08/15 11:02:47;;;;;;;9.57;6.18;;;;;;;;;;4826937;29;20040;-88
2022/08/15 11:05:15;;;;;;;7.47;5.85;;;;;;;;;;4814015;29;20046;-84
2022/08/15 11:07:47;;;;;;;8.10;6.15;;;;;;;;;;4813916;29;20069;-88
2022/08/15 11:10:15;;;;;;;8.90;5.63;;;;;;;;;;4827072;29;20583;-87
2022/08/15 11:12:43;;;;;;;7.10;5.60;;;;;;;;;;4793975;29;20054;-88
2022/08/15 11:15:35;;;;;;;6.22;5.18;;;;;;;;;;4812002;29;20054;-86
2022/08/15 11:18:08;;;;;;;6.93;5.40;;;;;;;;;;4829033;29;20050;-88
2022/08/15 11:20:46;;;;;;;6.20;5.50;;;;;;;;;;4810149;29;20109;-87
2022/08/15 11:23:31;;;;;;;7.80;5.68;;;;;;;;;;4818600;29;20054;-86
2022/08/15 11:26:23;;;;;;;6.55;5.95;;;;;;;;;;4826033;29;20050;-86
2022/08/15 11:32:24;;;;;;;7.60;6.75;;;;;;;;;;4828854;29;20049;-85
2022/08/15 11:34:51;;;;;;;8.50;6.95;;;;;;;;;;4794648;29;20514;-86
2022/08/15 11:37:19;;;;;;;7.07;5.97;;;;;;;;;;4799523;29;20140;-86
2022/08/15 11:40:08;;;;;;;6.97;6.35;;;30.30;99.90;;;;;;4812638;29;20065;-87
2022/08/15 11:43:03;;;;;;;6.95;5.80;;;30.50;99.90;;;;;;4808570;29;20078;-87
2022/08/15 11:46:22;;;;;;;6.65;6.15;;;30.40;99.90;;;;;;4826882;29;20133;-84
2022/08/15 12:01:46;;;;;;;7.53;6.30;;;;;;;;;;4804241;29;20059;-84
2022/08/15 12:08:17;;;;;;;8.00;6.30;;;;;;;;;;4832090;29;20037;-86
2022/08/15 12:11:08;;;;;;;6.97;6.13;;;;;;;;;;4804780;29;20079;-85
2022/08/15 12:14:06;;;;;;;7.25;6.50;;;;;;;;;;4809693;29;20068;-83
2022/08/15 12:20:04;;;;;;;6.60;5.80;;;;;;;;;;4795945;29;20054;-85
2022/08/15 12:23:01;;;;;;;7.07;6.18;;;;;;;;;;4802049;29;20079;-82
2022/08/15 12:25:40;;;;;;;7.40;5.95;;;;;;;;;;4810977;29;20187;-84
2022/08/15 12:31:53;;;;;;;8.15;6.97;;;;;;;;;;4810107;29;20058;-82
2022/08/15 12:34:39;;;;;;;13.90;11.40;;;;;;;;;;4816937;29;20089;-84
2022/08/15 12:37:09;;;;;;;14.93;13.40;;;;;;;;;;4808841;29;20060;-84
2022/08/15 12:39:40;;;;;;;14.88;11.93;;;;;;;;;;4822677;29;20046;-81
2022/08/15 12:42:38;;;;;;;18.58;11.90;;;;;;;;;;4814580;29;20038;-83
2022/08/15 12:45:07;;;;;;;14.57;13.20;;;;;;;;;;4753903;29;20062;-86
2022/08/15 12:48:04;;;;;;;15.90;12.43;;;;;;;;;;4840477;29;20053;-84
2022/08/15 12:50:31;;;;;;;12.70;11.48;;;;;;;;;;4796104;29;20055;-84
2022/08/15 12:52:58;;;;;;;12.55;11.25;;;;;;;;;;4816154;29;20408;-83
2022/08/15 12:55:28;;;;;;;13.30;11.35;;;;;;;;;;4798103;29;20046;-84
2022/08/15 12:57:54;;;;;;;15.25;11.63;;;;;;;;;;4785734;29;20049;-85
2022/08/15 13:00:50;;;;;;;12.88;11.07;;;;;;;;;;4837751;29;20146;-87
2022/08/15 13:09:27;;;;;;;17.73;11.73;;;;;;;;;;4843026;23;20065;-82
2022/08/15 13:12:01;;;;;;;16.48;11.27;;;;;;;;;;4818677;29;20046;-87
2022/08/15 13:51:47;;;;;;;12.25;10.38;;;;;;;;;;4840562;29;20049;-88
2022/08/15 13:54:44;;;;;;;9.25;8.38;;;;;;;;;;4847453;29;20901;-89
2022/08/15 13:57:22;;;;;;;10.13;8.32;;;;;;;;;;4810974;29;20141;-90
2022/08/15 14:09:24;;;;;;;10.45;8.40;;;;;;;;;;4946534;24;20085;-89
2022/08/15 14:15:07;;;;;;;10.75;8.52;;;;;;;;;;4809373;29;20069;-88
2022/08/15 14:17:34;;;;;;;11.43;8.00;;;;;;;;;;4794068;29;20041;-87
2022/08/15 14:20:09;;;;;;;9.25;8.35;;;;;;;;;;4826892;29;20042;-87
2022/08/15 19:29:45;;;;;;;14.40;9.30;;;;;;;;;;4986157;23;20531;-89
2022/08/15 19:35:18;;;;;;;14.00;8.38;;;;;;;;;;4829489;29;20072;-90
2022/08/15 19:45:05;;;;;;;16.20;8.23;;;;;;;;;;4792843;29;20070;-90
2022/08/15 20:13:35;;;;;;;18.08;11.90;;;;;;;;;;4867831;23;20552;-88
2022/08/15 20:16:10;;;;;;;16.98;11.75;;;;;;;;;;4765642;29;20537;-88
2022/08/15 21:04:36;;;;;;;16.17;14.40;;;;;;;;;;4843392;24;20081;-91
2022/08/15 21:54:36;;;;;;;15.05;13.43;;;;;;;;;;4818701;29;20050;-92
2022/08/15 21:57:38;;;;;;;17.73;15.77;;;22.20;99.90;;;;;;4802297;29;20069;-89
2022/08/15 22:11:43;;;;;;;18.27;13.00;;;;;;;;;;4832685;23;20065;-90
2022/08/15 22:27:17;;;;;;;20.48;13.55;;;;;;;;;;4805137;29;20137;-89
2022/08/15 22:33:13;;;;;;;17.20;13.00;;;;;;;;;;4839214;29;20148;-88
2022/08/15 22:42:19;;;;;;;18.15;14.13;;;;;;;;;;4827522;29;20062;-85
2022/08/15 23:28:09;;;;;;;17.90;15.95;;;;;;;;;;4810068;24;20078;-88
2022/08/15 23:43:32;;;;;;;19.70;16.23;;;;;;;;;;4812103;29;20058;-92
2022/08/15 23:49:20;;;;;;;19.55;16.85;;;;;;;;;;4809905;24;20124;-90
2022/08/15 23:51:53;;;;;;;23.85;16.98;;;;;;;;;;4820978;29;20453;-94
2022/08/15 23:54:44;;;;;;;21.30;16.63;;;;;;;;;;4814177;24;20146;-90
2022/08/15 23:57:10;;;;;;;19.05;17.08;;;;;;;;;;4807358;24;20373;-90
